Time;durP1;ratioP1;P1;durP2;ratioP2;P2;SDS_P1;SDS_P2;PMS_P1;PMS_P2;Temp;Humidity;BMP_temperature;BMP_pressure;BME280_temperature;BME280_humidity;BME280_pressure;Samples;Min_cycle;Max_cycle;Signal;HPM_P1;HPM_P2
2022/03/18 00:01:58;;;;;;;21.02;6.55;;;;;;;5.57;78.00;103847.56;5050406;28;20082;-43
2022/03/18 00:04:24;;;;;;;19.75;5.93;;;;;;;5.57;77.60;103852.91;5051097;28;20029;-44
2022/03/18 00:06:49;;;;;;;15.85;5.53;;;;;;;5.53;77.57;103845.97;5050479;28;20060;-45
2022/03/18 00:09:14;;;;;;;16.30;6.13;;;;;;;5.50;78.16;103847.88;5051034;28;20040;-43
2022/03/18 00:11:40;;;;;;;21.30;6.15;;;;;;;5.52;78.42;103860.28;5050211;28;20033;-45
2022/03/18 00:14:05;;;;;;;26.95;6.65;;;;;;;5.52;78.54;103861.13;5050509;28;20025;-42
2022/03/18 00:16:30;;;;;;;15.32;6.15;;;;;;;5.48;77.93;103860.44;5050137;28;20032;-43
2022/03/18 00:18:56;;;;;;;15.40;6.47;;;;;;;5.47;78.20;103866.69;5050285;28;20059;-42
2022/03/18 00:21:23;;;;;;;17.15;5.95;;;;;;;5.42;77.50;103865.19;5047253;28;20025;-42
2022/03/18 00:23:48;;;;;;;19.85;6.10;;;;;;;5.39;77.81;103868.88;5050877;28;20063;-43
2022/03/18 00:26:14;;;;;;;17.00;5.57;;;;;;;5.40;78.28;103864.44;5050767;28;20025;-43
2022/03/18 00:28:39;;;;;;;18.77;5.70;;;;;;;5.35;78.11;103872.66;5050311;28;20120;-42
2022/03/18 00:31:06;;;;;;;19.55;6.25;;;;;;;5.32;78.44;103870.13;5049955;28;20032;-42
2022/03/18 00:33:31;;;;;;;17.50;5.68;;;;;;;5.34;78.59;103868.22;5049777;28;20032;-42
2022/03/18 00:35:56;;;;;;;15.70;5.60;;;;;;;5.36;78.59;103870.84;5050140;28;20128;-44
2022/03/18 00:38:22;;;;;;;20.13;5.13;;;;;;;5.34;78.58;103873.56;5050045;28;20060;-42
2022/03/18 00:40:50;;;;;;;17.80;5.88;;;;;;;5.31;78.61;103870.19;5049732;28;20067;-41
2022/03/18 00:43:16;;;;;;;14.73;5.65;;;;;;;5.25;78.57;103869.53;5048488;28;20025;-43
2022/03/18 00:45:42;;;;;;;13.10;5.05;;;;;;;5.21;78.23;103877.75;5048972;28;20541;-43
2022/03/18 00:53:35;;;;;;;14.52;5.03;;;;;;;5.06;79.39;103868.69;5048152;28;20514;-42
2022/03/18 00:56:00;;;;;;;16.67;5.30;;;;;;;5.09;79.61;103875.69;5049574;28;20111;-42
2022/03/18 00:58:25;;;;;;;19.45;5.05;;;;;;;5.07;78.82;103878.41;5049788;28;20032;-42
2022/03/18 01:00:50;;;;;;;21.17;5.63;;;;;;;5.05;79.26;103875.84;5049576;28;20025;-43
2022/03/18 01:03:16;;;;;;;16.88;5.55;;;;;;;5.05;79.10;103869.59;5049961;28;20388;-43
2022/03/18 01:05:42;;;;;;;18.38;4.85;;;;;;;5.02;79.39;103867.94;5049997;28;20503;-43
2022/03/18 01:08:08;;;;;;;16.77;5.55;;;;;;;4.98;78.90;103886.88;5049246;28;20143;-43
2022/03/18 01:10:33;;;;;;;11.65;4.75;;;;;;;4.95;79.56;103885.19;5049772;28;20100;-42
2022/03/18 01:12:58;;;;;;;18.90;5.93;;;;;;;4.94;79.84;103883.44;5049654;28;20028;-43
2022/03/18 01:15:24;;;;;;;17.92;4.82;;;;;;;4.89;78.87;103879.25;5044555;28;20037;-43
2022/03/18 01:17:49;;;;;;;13.00;4.68;;;;;;;4.82;79.46;103876.88;5045603;28;20029;-43
2022/03/18 01:20:14;;;;;;;12.90;5.07;;;;;;;4.82;80.30;103879.56;5038906;28;20033;-42
2022/03/18 01:22:40;;;;;;;12.18;4.80;;;;;;;4.84;80.57;103868.78;5049141;28;20054;-43
2022/03/18 01:25:06;;;;;;;10.65;4.40;;;;;;;4.87;80.81;103882.03;5049373;28;20074;-43
2022/03/18 01:27:32;;;;;;;15.65;4.75;;;;;;;4.87;80.57;103887.34;5049701;28;20055;-42
2022/03/18 01:29:57;;;;;;;12.82;5.10;;;;;;;4.89;80.50;103882.78;5049798;28;20057;-43
2022/03/18 01:32:22;;;;;;;13.52;4.70;;;;;;;4.89;80.39;103890.78;5049334;28;20506;-42
2022/03/18 01:34:47;;;;;;;13.18;4.88;;;;;;;4.93;80.62;103894.22;5049031;28;20039;-42
2022/03/18 01:37:13;;;;;;;14.52;4.70;;;;;;;4.93;80.83;103895.06;5049856;28;20094;-42
2022/03/18 01:39:38;;;;;;;17.48;4.20;;;;;;;4.91;80.54;103894.28;5049286;28;20529;-44
2022/03/18 01:42:04;;;;;;;11.38;3.67;;;;;;;4.93;80.72;103894.22;5046653;28;20364;-45
2022/03/18 01:44:29;;;;;;;14.98;4.72;;;;;;;4.89;80.47;103892.59;5051736;28;20045;-42
2022/03/18 01:46:55;;;;;;;14.00;4.72;;;;;;;4.88;80.75;103885.56;5053583;28;20060;-44
2022/03/18 01:49:20;;;;;;;12.38;4.43;;;;;;;4.81;79.75;103887.63;5051764;28;20115;-42
2022/03/18 01:51:45;;;;;;;9.95;4.80;;;;;;;4.74;79.89;103878.16;5049856;28;20063;-43
2022/03/18 01:56:55;;;;;;;9.63;4.25;;;;;;;4.69;80.62;103883.72;5053252;28;20094;-42
2022/03/18 01:59:20;;;;;;;14.07;4.55;;;;;;;4.66;80.63;103881.19;5052947;28;20473;-42
2022/03/18 02:01:45;;;;;;;20.08;4.32;;;;;;;4.62;80.46;103883.09;5053028;28;20031;-42
2022/03/18 02:04:11;;;;;;;9.40;4.30;;;;;;;4.54;80.52;103871.91;5053136;28;20039;-42
2022/03/18 02:06:37;;;;;;;11.98;4.32;;;;;;;4.49;80.41;103881.06;5053148;28;20071;-43
2022/03/18 02:09:02;;;;;;;9.93;4.40;;;;;;;4.52;81.21;103870.25;5051749;28;20064;-43
2022/03/18 02:11:27;;;;;;;19.55;4.57;;;;;;;4.53;81.66;103896.88;5053047;28;20037;-42
2022/03/18 02:13:57;;;;;;;11.27;4.07;;;;;;;4.56;81.42;103896.72;5053103;28;20071;-43
2022/03/18 02:16:22;;;;;;;13.85;4.72;;;;;;;4.61;81.98;103909.88;5051522;28;20036;-42
2022/03/18 02:18:48;;;;;;;10.57;3.90;;;;;;;4.63;81.50;103902.63;5052757;28;20040;-41
2022/03/18 02:21:14;;;;;;;11.07;3.97;;;;;;;4.66;81.51;103898.97;5052801;28;20037;-42
2022/03/18 02:23:40;;;;;;;19.55;4.40;;;;;;;4.61;81.10;103915.19;5052053;28;20025;-43
2022/03/18 02:26:05;;;;;;;14.60;4.15;;;;;;;4.59;81.07;103915.25;5051544;28;20376;-43
2022/03/18 02:28:31;;;;;;;9.88;4.38;;;;;;;4.55;81.15;103916.31;5052511;28;20037;-42
2022/03/18 02:30:56;;;;;;;16.25;3.90;;;;;;;4.57;81.43;103919.78;5052803;28;20032;-43
2022/03/18 02:33:21;;;;;;;13.57;3.92;;;;;;;4.54;81.14;103919.91;5052700;28;20435;-42
2022/03/18 02:35:53;;;;;;;16.08;4.13;;;;;;;4.53;81.29;103918.19;5052343;28;20365;-42
2022/03/18 02:38:18;;;;;;;14.50;4.50;;;;;;;4.47;80.91;103923.78;5052580;28;20116;-43
2022/03/18 02:40:44;;;;;;;9.27;4.03;;;;;;;4.45;81.53;103917.66;5052364;28;20450;-42
2022/03/18 02:43:09;;;;;;;12.68;3.90;;;;;;;4.39;80.96;103925.91;5047842;28;20079;-42
2022/03/18 02:45:34;;;;;;;21.85;4.93;;;;;;;4.38;81.50;103924.19;5051855;28;20025;-42
2022/03/18 02:48:00;;;;;;;16.67;4.20;;;;;;;4.41;82.07;103926.72;5051908;28;20491;-42
2022/03/18 02:50:25;;;;;;;13.23;3.97;;;;;;;4.45;82.18;103923.00;5041360;28;20331;-43
2022/03/18 02:52:50;;;;;;;11.85;4.07;;;;;;;4.48;81.87;103930.00;5051981;28;20032;-42
2022/03/18 02:55:17;;;;;;;9.95;3.65;;;;;;;4.49;81.12;103932.59;5051896;28;20048;-43
2022/03/18 02:57:42;;;;;;;10.60;4.25;;;;;;;4.47;81.23;103934.44;5051342;28;20112;-44
2022/03/18 03:00:08;;;;;;;14.45;4.15;;;;;;;4.43;81.73;103932.88;5051244;28;20132;-41
2022/03/18 03:02:34;;;;;;;21.98;5.95;;;;;;;4.43;81.54;103946.19;5051911;28;20112;-43
2022/03/18 03:08:01;;;;;;;12.48;4.00;;;;;;;4.34;81.23;103946.56;5107651;22;20585;-79
2022/03/18 03:10:31;;;;;;;10.98;4.20;;;;;;;4.27;80.76;103947.78;5035581;28;20108;-79
2022/03/18 03:13:01;;;;;;;19.92;4.72;;;;;;;4.23;80.78;103951.50;5053227;28;20388;-79
2022/03/18 03:15:27;;;;;;;10.95;3.83;;;;;;;4.20;81.29;103951.63;5037681;28;20422;-81
2022/03/18 03:17:52;;;;;;;10.60;4.05;;;;;;;4.13;81.67;103951.00;5054161;28;20053;-80
2022/03/18 03:20:18;;;;;;;9.60;3.63;;;;;;;4.12;81.58;103946.63;5052273;28;20029;-80
2022/03/18 03:22:43;;;;;;;9.23;3.85;;;;;;;4.12;82.03;103949.28;5052742;28;20377;-80
2022/03/18 03:25:08;;;;;;;12.98;4.40;;;;;;;4.13;82.75;103941.25;5052455;28;20388;-79
2022/03/18 03:27:34;;;;;;;11.32;4.40;;;;;;;4.12;82.91;103944.81;5051874;28;20024;-80
2022/03/18 03:30:00;;;;;;;12.00;4.65;;;;;;;4.09;82.09;103944.09;5052196;28;20531;-80
2022/03/18 03:32:27;;;;;;;12.95;4.43;;;;;;;4.03;81.98;103945.22;5045626;28;20082;-79
2022/03/18 03:34:54;;;;;;;15.25;4.82;;;;;;;4.03;82.39;103939.88;5052621;28;20029;-81
2022/03/18 03:37:19;;;;;;;14.15;4.28;;;;;;;4.00;83.29;103942.63;5034156;28;20028;-80
2022/03/18 03:39:44;;;;;;;12.27;4.60;;;;;;;4.00;82.86;103955.97;5051652;28;20033;-80
2022/03/18 03:42:10;;;;;;;9.70;4.30;;;;;;;3.97;82.76;103956.97;5052150;28;20104;-81
2022/03/18 03:44:35;;;;;;;14.32;4.70;;;;;;;3.98;83.59;103955.19;5052981;28;20052;-81
2022/03/18 03:47:00;;;;;;;13.52;4.20;;;;;;;3.96;83.16;103949.91;5052461;28;20071;-81
2022/03/18 03:49:25;;;;;;;12.95;4.05;;;;;;;3.96;83.68;103965.91;5065490;28;20060;-81
2022/03/18 03:51:51;;;;;;;10.00;4.30;;;;;;;3.97;83.76;103964.09;5068645;28;20033;-81
2022/03/18 03:54:16;;;;;;;19.63;4.57;;;;;;;3.91;83.08;103961.69;5068510;28;20077;-82
2022/03/18 03:56:41;;;;;;;10.63;4.38;;;;;;;3.90;83.04;103965.28;5065876;28;20052;-82
2022/03/18 03:59:07;;;;;;;13.35;4.65;;;;;;;3.85;83.21;103961.94;5067734;28;20040;-81
2022/03/18 04:01:32;;;;;;;9.98;4.25;;;;;;;3.81;83.24;103966.50;5030593;28;20032;-81
2022/03/18 04:03:58;;;;;;;19.85;4.95;;;;;;;3.81;83.87;103966.50;5050072;28;20021;-81
2022/03/18 04:06:24;;;;;;;8.52;4.22;;;;;;;3.83;83.79;103962.00;5060160;28;20041;-79
2022/03/18 04:08:49;;;;;;;14.48;4.47;;;;;;;3.83;84.11;103959.31;5027808;28;20064;-78
2022/03/18 04:11:14;;;;;;;10.60;4.32;;;;;;;3.83;84.11;103961.13;5047068;28;20033;-79
2022/03/18 04:13:40;;;;;;;12.38;4.75;;;;;;;3.79;84.01;103971.06;5043512;28;20028;-81
2022/03/18 04:16:06;;;;;;;17.73;4.38;;;;;;;3.73;83.27;103976.59;5063829;28;20037;-82
2022/03/18 04:18:31;;;;;;;13.98;4.55;;;;;;;3.71;83.97;103978.44;5056659;28;20045;-81
2022/03/18 04:20:56;;;;;;;15.50;4.82;;;;;;;3.74;84.13;103992.53;5075249;28;20085;-79
2022/03/18 04:23:22;;;;;;;13.88;4.72;;;;;;;3.77;84.47;103994.22;5048259;28;20047;-81
2022/03/18 04:25:50;;;;;;;8.90;3.97;;;;;;;3.83;84.12;103995.75;5054046;28;20038;-80
2022/03/18 04:28:16;;;;;;;;;;;;;;;3.86;84.29;103990.31;5070964;28;20047;-81
2022/03/18 04:30:41;;;;;;;12.75;4.55;;;;;;;3.80;83.77;103985.22;5047685;28;19940;-80
2022/03/18 04:33:06;;;;;;;8.02;4.40;;;;;;;3.78;83.88;103982.63;5056404;28;20157;-80
2022/03/18 04:35:32;;;;;;;19.58;4.72;;;;;;;3.75;83.74;103977.41;5050138;28;20070;-80
2022/03/18 04:37:58;;;;;;;6.22;3.88;;;;;;;3.71;83.01;103976.69;5036595;28;20085;-81
2022/03/18 04:40:23;;;;;;;12.57;4.65;;;;;;;3.56;82.78;103985.25;5050696;28;20025;-81
2022/03/18 04:42:48;;;;;;;16.45;5.00;;;;;;;3.52;84.15;103988.94;5049018;28;20058;-79
2022/03/18 04:45:14;;;;;;;13.80;5.57;;;;;;;3.56;84.96;103992.38;5052541;28;20030;-79
2022/03/18 04:47:39;;;;;;;12.23;4.10;;;;;;;3.54;84.39;103979.13;5037220;28;20044;-80
2022/03/18 04:50:05;;;;;;;8.55;3.97;;;;;;;3.52;83.81;103987.16;5078234;28;20059;-79
2022/03/18 04:52:31;;;;;;;12.73;5.13;;;;;;;3.49;84.29;103997.91;5058678;28;20009;-79
2022/03/18 04:54:56;;;;;;;14.35;4.60;;;;;;;3.48;84.51;103998.88;5061722;28;20100;-80
2022/03/18 04:57:22;;;;;;;11.82;4.20;;;;;;;3.49;84.86;103992.59;5026465;28;20115;-81
2022/03/18 04:59:48;;;;;;;13.27;4.55;;;;;;;3.51;84.98;103989.88;5032650;28;20095;-80
2022/03/18 05:02:15;;;;;;;14.88;4.85;;;;;;;3.54;84.92;104002.22;5047471;28;20021;-80
2022/03/18 05:04:41;;;;;;;15.70;4.60;;;;;;;3.55;85.17;104015.47;5039767;28;20025;-77
2022/03/18 05:07:07;;;;;;;15.20;6.63;;;;;;;3.59;85.11;104013.56;4994884;28;1285985;-78
2022/03/18 05:09:33;;;;;;;12.35;5.55;;;;;;;3.63;85.17;104016.03;5036474;28;20079;-79
2022/03/18 05:11:58;;;;;;;13.27;4.38;;;;;;;3.65;84.09;104019.50;5038550;28;20076;-78
2022/03/18 05:14:23;;;;;;;10.00;4.43;;;;;;;3.61;84.46;104019.72;5034788;28;20496;-78
2022/03/18 05:16:49;;;;;;;15.73;4.80;;;;;;;3.60;84.66;104024.16;5043600;28;20041;-77
2022/03/18 05:19:14;;;;;;;10.73;4.50;;;;;;;3.59;84.87;104025.09;5050130;28;20505;-78
2022/03/18 05:21:39;;;;;;;11.80;5.22;;;;;;;3.60;84.77;104025.94;5039487;28;20033;-78
2022/03/18 05:24:06;;;;;;;10.63;5.20;;;;;;;3.58;84.50;104023.34;5060420;28;20021;-78
2022/03/18 05:26:32;;;;;;;13.75;5.03;;;;;;;3.58;84.43;104033.13;5064939;28;20021;-78
2022/03/18 05:28:57;;;;;;;27.85;5.45;;;;;;;3.59;84.74;104041.06;5064268;28;20385;-77
2022/03/18 05:31:23;;;;;;;13.90;4.78;;;;;;;3.60;84.73;104048.13;5051853;28;20542;-79
2022/03/18 05:33:48;;;;;;;15.43;5.22;;;;;;;3.61;84.64;104052.53;5040738;28;20033;-77
2022/03/18 05:36:14;;;;;;;15.85;4.82;;;;;;;3.59;84.40;104054.38;5036534;28;20059;-76
2022/03/18 05:38:39;;;;;;;9.70;4.90;;;;;;;3.59;84.55;104070.34;5042854;28;20040;-77
2022/03/18 05:41:05;;;;;;;13.68;4.90;;;;;;;3.62;84.81;104062.25;5043967;28;20095;-78
2022/03/18 05:43:30;;;;;;;17.23;5.03;;;;;;;3.64;84.72;104071.06;5060397;28;20457;-78
2022/03/18 05:45:56;;;;;;;23.05;5.15;;;;;;;3.65;84.70;104072.78;5040978;28;20022;-78
2022/03/18 05:48:21;;;;;;;13.77;4.45;;;;;;;3.63;84.16;104084.41;5043373;28;20385;-77
2022/03/18 05:50:47;;;;;;;17.45;5.95;;;;;;;3.63;83.61;104079.94;5075842;28;20041;-78
2022/03/18 05:53:12;;;;;;;16.73;5.20;;;;;;;3.66;83.78;104079.88;5068612;28;20021;-78
2022/03/18 05:58:22;;;;;;;16.67;5.43;;;;;;;3.69;83.95;104084.22;5053229;28;20189;-77
2022/03/18 06:00:48;;;;;;;15.07;5.47;;;;;;;3.74;83.72;104087.56;5042797;28;20033;-77
2022/03/18 06:03:13;;;;;;;25.48;6.10;;;;;;;3.66;83.14;104085.19;5041194;28;20033;-77
2022/03/18 06:05:40;;;;;;;16.98;5.57;;;;;;;3.70;83.76;104085.94;5069820;28;20060;-76
2022/03/18 06:13:33;;;;;;;15.15;4.93;;;;;;;3.72;83.89;104095.63;5065427;28;20110;-77
2022/03/18 06:15:58;;;;;;;16.85;4.95;;;;;;;3.74;83.60;104090.25;5074155;28;20488;-77
2022/03/18 06:18:23;;;;;;;14.05;5.38;;;;;;;3.81;84.31;104088.19;5043077;28;20063;-77
2022/03/18 06:20:50;;;;;;;9.38;5.13;;;;;;;3.86;83.87;104091.56;5013866;28;20043;-77
2022/03/18 06:23:15;;;;;;;14.80;5.40;;;;;;;3.95;83.70;104101.88;5065878;28;20123;-76
2022/03/18 06:25:41;;;;;;;17.33;5.30;;;;;;;3.97;83.40;104108.00;5063950;28;20036;-79
2022/03/18 06:28:06;;;;;;;13.27;5.05;;;;;;;4.02;83.90;104114.03;5059824;28;20024;-77
2022/03/18 06:30:32;;;;;;;22.17;6.57;;;;;;;4.12;83.80;104120.75;5065910;28;20032;-79
2022/03/18 06:32:57;;;;;;;18.63;5.60;;;;;;;4.25;83.92;104118.47;5065489;28;20036;-78
2022/03/18 06:35:22;;;;;;;15.13;5.15;;;;;;;4.48;83.80;104116.69;5067489;28;20099;-78
2022/03/18 06:37:48;;;;;;;16.10;5.95;;;;;;;4.87;83.52;104132.00;5066760;28;20040;-78
2022/03/18 06:40:13;;;;;;;17.60;6.55;;;;;;;5.29;82.47;104131.97;5067358;28;20025;-77
2022/03/18 06:42:38;;;;;;;29.98;6.60;;;;;;;5.90;81.10;104139.94;5061916;28;20034;-75
2022/03/18 06:45:04;;;;;;;19.83;6.00;;;;;;;6.43;78.08;104137.53;5065946;28;20017;-77
2022/03/18 06:47:29;;;;;;;14.07;5.10;;;;;;;6.89;75.00;104137.94;5050278;28;20049;-75
2022/03/18 06:49:55;;;;;;;14.75;5.35;;;;;;;7.47;73.30;104137.63;5034842;28;20478;-76
2022/03/18 06:52:20;;;;;;;16.88;5.70;;;;;;;7.56;71.22;104137.16;5048339;28;20022;-77
2022/03/18 06:54:45;;;;;;;20.75;5.05;;;;;;;7.83;70.06;104134.78;5038970;28;20048;-77
2022/03/18 06:57:11;;;;;;;22.15;5.50;;;;;;;8.42;68.62;104148.53;5050384;28;20067;-77
2022/03/18 06:59:36;;;;;;;16.73;5.18;;;;;;;8.62;67.38;104142.06;5056967;28;20044;-77
2022/03/18 07:02:01;;;;;;;14.10;4.30;;;;;;;9.06;66.95;104143.09;5057550;28;20036;-76
2022/03/18 07:04:26;;;;;;;18.08;4.68;;;;;;;9.27;65.15;104149.88;5060386;28;20033;-78
2022/03/18 07:06:52;;;;;;;15.10;4.47;;;;;;;9.44;65.28;104155.09;5051987;28;20053;-77
2022/03/18 07:09:17;;;;;;;11.68;4.95;;;;;;;9.59;63.64;104163.19;5044354;28;20020;-76
2022/03/18 07:11:42;;;;;;;12.50;4.30;;;;;;;9.70;63.98;104166.09;5040033;28;20415;-77
2022/03/18 07:14:08;;;;;;;10.57;4.68;;;;;;;10.25;62.35;104157.22;5049046;28;20449;-76
2022/03/18 07:19:17;;;;;;;20.00;4.80;;;;;;;10.31;59.66;104156.84;5042608;28;20036;-77
2022/03/18 07:21:42;;;;;;;15.77;4.63;;;;;;;10.22;59.33;104157.44;5036151;28;20396;-77
2022/03/18 07:24:08;;;;;;;17.70;4.60;;;;;;;10.44;60.52;104164.16;5033954;28;20048;-77
2022/03/18 07:26:33;;;;;;;21.42;5.35;;;;;;;10.84;58.24;104157.00;5055804;28;20033;-77
2022/03/18 07:29:01;;;;;;;8.95;4.22;;;;;;;11.36;57.62;104155.28;5051258;28;20378;-77
2022/03/18 07:31:26;;;;;;;12.95;4.43;;;;;;;12.28;55.59;104160.44;5021015;28;20029;-76
2022/03/18 07:33:52;;;;;;;12.15;3.85;;;;;;;12.96;52.31;104172.50;5036715;28;20045;-78
2022/03/18 07:36:18;;;;;;;11.65;4.07;;;;;;;13.81;50.94;104172.25;5059284;28;20040;-78
2022/03/18 07:38:44;;;;;;;11.10;4.50;;;;;;;14.85;46.56;104175.56;5032041;28;20025;-78
2022/03/18 07:41:10;;;;;;;14.15;4.90;;;;;;;14.88;46.32;104192.47;5054823;28;20516;-79
2022/03/18 07:43:36;;;;;;;14.45;4.35;;;;;;;15.20;46.11;104197.00;5053072;28;20055;-77
2022/03/18 07:46:02;;;;;;;13.50;5.07;;;;;;;15.56;44.66;104206.56;5041221;28;20036;-78
2022/03/18 07:48:27;;;;;;;12.65;4.75;;;;;;;15.95;45.80;104208.66;5055947;28;20033;-77
2022/03/18 07:50:53;;;;;;;12.85;4.80;;;;;;;16.08;43.30;104213.88;5040828;28;20065;-77
2022/03/18 07:53:18;;;;;;;13.10;4.90;;;;;;;16.19;43.48;104211.03;5017292;28;20034;-77
2022/03/18 07:55:44;;;;;;;15.98;4.95;;;;;;;16.54;42.51;104217.91;5032885;28;20041;-77
2022/03/18 07:58:09;;;;;;;22.10;5.15;;;;;;;17.03;41.68;104224.28;5042809;28;20028;-77
2022/03/18 08:00:35;;;;;;;14.73;5.05;;;;;;;17.49;40.83;104233.63;5049611;28;20040;-77
2022/03/18 08:03:01;;;;;;;32.10;6.05;;;;;;;17.86;40.84;104244.59;5050492;28;20444;-76
2022/03/18 08:05:26;;;;;;;21.90;4.93;;;;;;;18.17;39.15;104247.94;5045967;28;20038;-76
2022/03/18 08:07:52;;;;;;;18.27;5.15;;;;;;;18.47;39.34;104242.34;5013879;28;20068;-76
2022/03/18 08:10:18;;;;;;;14.85;5.20;;;;;;;18.71;37.77;104253.53;5051169;28;20481;-76
2022/03/18 08:12:44;;;;;;;27.75;6.55;;;;;;;18.75;38.95;104259.59;5016440;28;20083;-77
2022/03/18 08:15:11;;;;;;;29.23;5.90;;;;;;;19.18;37.75;104261.59;5028156;28;20387;-75
2022/03/18 08:17:38;;;;;;;29.25;6.25;;;;;;;19.70;38.24;104255.41;5035226;28;20037;-76
2022/03/18 08:20:05;;;;;;;21.33;5.07;;;;;;;21.41;35.17;104263.44;5044528;28;20025;-76
2022/03/18 08:22:30;;;;;;;21.15;5.20;;;;;;;20.81;36.81;104260.91;5024013;28;20037;-76
2022/03/18 08:24:55;;;;;;;24.23;5.53;;;;;;;20.90;37.40;104262.63;5040454;28;20025;-77
2022/03/18 08:27:20;;;;;;;14.48;5.30;;;;;;;21.69;35.50;104263.91;5042161;28;20025;-77
2022/03/18 08:29:47;;;;;;;16.75;5.35;;;;;;;21.60;35.77;104264.94;5048972;28;20056;-77
2022/03/18 08:32:14;;;;;;;17.52;5.03;;;;;;;21.14;36.28;104267.28;5049563;28;20025;-75
2022/03/18 08:34:41;;;;;;;19.60;5.13;;;;;;;22.80;34.09;104267.66;5050850;28;20082;-77
2022/03/18 08:37:06;;;;;;;16.60;4.57;;;;;;;22.42;34.54;104261.16;5027046;28;20042;-76
2022/03/18 08:39:32;;;;;;;27.55;5.57;;;;;;;21.55;35.60;104263.75;5018539;28;20040;-75
2022/03/18 08:41:58;;;;;;;19.70;4.65;;;;;;;21.96;35.93;104267.31;5008585;28;20120;-76
2022/03/18 08:44:23;;;;;;;15.68;5.10;;;;;;;22.72;33.88;104270.44;5053166;28;20044;-77
2022/03/18 08:46:49;;;;;;;14.25;4.32;;;;;;;23.11;33.62;104275.88;5035312;28;20063;-76
2022/03/18 08:49:15;;;;;;;26.40;5.78;;;;;;;22.91;33.58;104282.88;5032983;28;20088;-76
2022/03/18 08:51:41;;;;;;;18.52;4.45;;;;;;;22.82;33.86;104281.22;5033293;28;20029;-77
2022/03/18 08:54:06;;;;;;;14.30;4.38;;;;;;;23.22;33.24;104296.59;5039165;28;20029;-76
2022/03/18 08:56:31;;;;;;;13.70;4.20;;;;;;;23.37;33.78;104292.00;5038046;28;20025;-76
2022/03/18 08:58:57;;;;;;;18.85;4.70;;;;;;;24.23;32.38;104284.31;5035538;28;20025;-76
2022/03/18 09:01:24;;;;;;;13.07;4.05;;;;;;;24.27;31.91;104290.28;5058765;28;20039;-77
2022/03/18 09:03:50;;;;;;;15.25;4.40;;;;;;;24.31;31.57;104297.97;5040826;28;20047;-75
2022/03/18 09:06:15;;;;;;;15.98;4.45;;;;;;;24.13;31.28;104303.00;5049852;28;20457;-77
2022/03/18 09:08:41;;;;;;;21.40;4.03;;;;;;;23.62;33.50;104308.31;5019441;28;20170;-78
2022/03/18 09:11:07;;;;;;;20.27;4.47;;;;;;;23.78;32.67;104299.09;5036078;28;20112;-76
2022/03/18 09:13:34;;;;;;;14.77;4.90;;;;;;;24.63;30.81;104312.41;5028509;28;20097;-77
2022/03/18 09:15:59;;;;;;;18.67;4.50;;;;;;;23.77;32.15;104309.22;5058389;28;20219;-76
2022/03/18 09:18:25;;;;;;;13.02;4.10;;;;;;;24.41;31.22;104310.59;5052547;28;20489;-76
2022/03/18 09:20:51;;;;;;;14.85;4.50;;;;;;;24.50;30.71;104315.84;5063709;28;20379;-76
2022/03/18 09:23:17;;;;;;;17.02;4.90;;;;;;;24.03;31.70;104318.94;5068874;28;19997;-76
2022/03/18 09:25:42;;;;;;;16.73;4.50;;;;;;;23.75;32.17;104321.44;5074854;28;20085;-76
2022/03/18 09:28:07;;;;;;;15.98;4.25;;;;;;;24.16;31.76;104321.91;5060199;28;20056;-77
2022/03/18 09:30:33;;;;;;;19.17;4.82;;;;;;;23.51;32.78;104327.97;5055257;28;20104;-76
2022/03/18 09:32:58;;;;;;;14.55;4.45;;;;;;;23.43;33.08;104338.03;5069843;28;20518;-77
2022/03/18 09:35:25;;;;;;;14.05;4.13;;;;;;;22.75;34.64;104342.34;5047244;28;20040;-75
2022/03/18 09:37:50;;;;;;;13.98;4.30;;;;;;;22.90;33.96;104341.59;5051764;28;20017;-76
2022/03/18 09:40:16;;;;;;;17.48;5.20;;;;;;;22.93;34.18;104341.22;5050796;28;20027;-76
2022/03/18 09:42:54;;;;;;;13.25;4.40;;;;;;;22.48;33.73;104340.91;5047924;28;20425;-78
2022/03/18 09:45:20;;;;;;;12.35;4.38;;;;;;;21.43;34.80;104343.59;5043737;28;20044;-77
2022/03/18 09:47:46;;;;;;;13.13;4.57;;;;;;;21.08;36.08;104344.66;5035949;28;20041;-77
2022/03/18 09:50:11;;;;;;;15.85;4.70;;;;;;;20.66;37.23;104344.69;5042499;28;20049;-78
2022/03/18 09:52:38;;;;;;;20.27;4.63;;;;;;;20.38;38.59;104351.19;5028922;28;20477;-76
2022/03/18 09:55:03;;;;;;;17.47;4.97;;;;;;;20.50;38.79;104349.03;5030560;28;20021;-76
2022/03/18 09:57:28;;;;;;;18.27;5.10;;;;;;;20.00;38.86;104351.63;5049447;28;20083;-78
2022/03/18 09:59:54;;;;;;;14.30;4.38;;;;;;;20.22;38.97;104342.00;5035603;28;20028;-76
2022/03/18 10:02:30;;;;;;;14.65;4.50;;;;;;;20.74;37.57;104345.56;5053849;28;20448;-78
2022/03/18 10:05:06;;;;;;;14.50;4.65;;;;;;;21.66;35.80;104348.38;5028551;28;20049;-77
2022/03/18 10:07:32;;;;;;;32.63;5.97;;;;;;;21.37;36.14;104355.16;5050698;28;20304;-77
2022/03/18 10:10:11;;;;;;;17.85;4.72;;;;;;;21.25;36.50;104351.06;5059269;28;20103;-77
2022/03/18 10:12:38;;;;;;;13.05;5.28;;;;;;;21.29;36.77;104351.56;5034366;28;20206;-79
2022/03/18 10:15:14;;;;;;;18.75;4.78;;;;;;;21.43;36.22;104354.53;5053810;28;20020;-79
2022/03/18 10:17:49;;;;;;;18.33;5.13;;;;;;;21.26;36.33;104353.59;5021602;28;20481;-77
2022/03/18 10:20:33;;;;;;;13.40;4.80;;;;;;;20.99;36.54;104359.38;5005803;28;20018;-79
2022/03/18 10:23:25;;;;;;;20.70;5.45;;;;;;;20.91;38.00;104354.72;5047061;28;20037;-75
2022/03/18 10:25:54;;;;;;;15.93;4.78;;;;;;;20.97;37.50;104354.06;5041193;28;20477;-78
2022/03/18 10:28:41;;;;;;;16.40;4.10;;;;;;;20.64;38.30;104361.25;5032267;28;20098;-79
2022/03/18 10:31:20;;;;;;;15.32;4.40;;;;;;;19.81;40.51;104355.41;5038315;28;20040;-79
2022/03/18 10:39:24;;;;;;;20.38;4.35;;;;;;;18.53;43.28;104359.88;5064050;28;20047;-75
2022/03/18 10:41:49;;;;;;;13.43;3.83;;;;;;;18.48;42.49;104364.06;5059717;28;20055;-76
2022/03/18 10:44:17;;;;;;;15.35;3.88;;;;;;;18.71;42.26;104359.09;5035074;28;20030;-77
2022/03/18 10:46:42;;;;;;;12.35;3.97;;;;;;;18.49;43.11;104363.94;5061239;28;20025;-75
2022/03/18 10:49:10;;;;;;;18.65;4.47;;;;;;;18.30;43.65;104361.25;5049944;28;20060;-75
2022/03/18 10:51:37;;;;;;;21.05;4.80;;;;;;;18.10;44.47;104368.63;5057219;28;20104;-76
2022/03/18 10:54:03;;;;;;;;;;;;;;;17.74;45.28;104374.63;5058970;28;20033;-76
2022/03/18 10:56:28;;;;;;;18.40;4.72;;;;;;;17.63;45.79;104374.78;5063563;28;19943;-76
2022/03/18 10:58:53;;;;;;;11.60;4.38;;;;;;;17.66;46.72;104373.66;5073483;28;20070;-77
2022/03/18 11:01:19;;;;;;;10.98;3.97;;;;;;;17.77;46.17;104374.38;5070761;28;20040;-79
2022/03/18 11:03:46;;;;;;;11.40;3.60;;;;;;;17.81;44.42;104374.13;5049708;28;20107;-76
2022/03/18 11:06:12;;;;;;;18.45;4.75;;;;;;;17.74;45.71;104374.63;5037351;28;20024;-78
2022/03/18 11:08:48;;;;;;;21.80;5.07;;;;;;;17.84;45.09;104376.53;5053547;28;20033;-77
2022/03/18 11:11:22;;;;;;;19.35;4.72;;;;;;;17.66;45.05;104374.50;5047045;28;20032;-77
2022/03/18 11:13:56;;;;;;;14.65;4.60;;;;;;;17.67;45.92;104383.56;5040947;28;20165;-75
2022/03/18 11:16:25;;;;;;;11.07;3.97;;;;;;;17.64;44.28;104381.97;5007957;28;20051;-79
2022/03/18 11:18:50;;;;;;;9.70;4.22;;;;;;;17.91;44.12;104384.00;5045019;28;20072;-78
2022/03/18 11:21:17;;;;;;;12.02;3.65;;;;;;;18.13;43.41;104380.09;5029627;28;20120;-77
2022/03/18 11:23:45;;;;;;;18.50;4.18;;;;;;;18.57;42.42;104377.69;5023648;28;20026;-77
2022/03/18 11:26:10;;;;;;;;;;;;;;;19.27;41.18;104379.94;5036028;28;20037;-78
2022/03/18 11:28:36;;;;;;;14.00;4.70;;;;;;;19.61;41.90;104382.00;5029656;28;19924;-78
2022/03/18 11:31:03;;;;;;;16.88;4.55;;;;;;;20.15;39.36;104380.97;5026398;28;20049;-79
2022/03/18 11:33:28;;;;;;;19.00;4.53;;;;;;;20.51;38.91;104371.75;5069027;28;20079;-77
2022/03/18 11:35:53;;;;;;;11.27;3.88;;;;;;;21.14;36.98;104376.84;5069521;28;20017;-79
2022/03/18 11:38:22;;;;;;;15.00;4.27;;;;;;;21.01;36.70;104381.94;5060796;28;20033;-79
2022/03/18 11:41:07;;;;;;;13.30;3.42;;;;;;;20.91;37.35;104375.78;5065452;28;20722;-77
2022/03/18 11:43:33;;;;;;;13.35;4.60;;;;;;;21.39;36.86;104386.03;5059273;28;20056;-79
2022/03/18 11:46:16;;;;;;;13.27;3.95;;;;;;;21.18;36.05;104372.78;5064327;28;20041;-78
2022/03/18 11:48:57;;;;;;;13.82;4.13;;;;;;;21.99;34.81;104373.06;5071065;28;20017;-80